createdAt,value
2022-09-05T00:01:39.622Z,95.70
2022-09-05T00:04:30.218Z,95.90
2022-09-05T00:07:08.350Z,95.90
2022-09-05T00:09:38.119Z,96.10
2022-09-05T00:12:06.907Z,96.00
2022-09-05T00:15:16.766Z,96.20
2022-09-05T00:20:00.077Z,96.30
2022-09-05T00:24:32.507Z,96.30
2022-09-05T00:25:00.857Z,96.30
2022-09-05T00:28:25.188Z,96.40
2022-09-05T00:31:50.646Z,96.40
2022-09-05T00:34:14.469Z,96.80
2022-09-05T00:36:46.565Z,96.60
2022-09-05T00:39:27.993Z,96.70
2022-09-05T00:42:17.040Z,96.60
2022-09-05T00:45:02.074Z,96.60
2022-09-05T00:47:48.338Z,96.80
2022-09-05T00:50:27.355Z,96.90
2022-09-05T00:53:06.827Z,97.00
2022-09-05T00:55:59.530Z,97.00
2022-09-05T00:59:03.629Z,97.00
2022-09-05T01:01:32.416Z,97.20
2022-09-05T01:04:27.647Z,97.40
2022-09-05T01:07:46.610Z,97.20
2022-09-05T01:10:34.000Z,97.40
2022-09-05T01:13:21.996Z,97.50
2022-09-05T01:15:57.988Z,97.70
2022-09-05T01:18:47.167Z,97.70
2022-09-05T01:21:31.834Z,97.60
2022-09-05T01:24:15.343Z,97.60
2022-09-05T01:27:00.440Z,97.50
2022-09-05T01:29:33.118Z,97.50
2022-09-05T01:32:24.583Z,97.40
2022-09-05T01:35:22.552Z,97.50
2022-09-05T01:38:12.126Z,97.90
2022-09-05T01:40:42.006Z,97.50
2022-09-05T01:43:24.154Z,97.50
2022-09-05T01:45:58.321Z,97.70
2022-09-05T01:48:53.961Z,97.90
2022-09-05T01:51:31.489Z,97.70
2022-09-05T01:54:50.996Z,97.80
2022-09-05T01:57:20.926Z,97.70
2022-09-05T02:00:05.021Z,97.70
2022-09-05T02:03:02.113Z,97.80
2022-09-05T02:05:51.909Z,97.90
2022-09-05T02:08:59.878Z,97.70
2022-09-05T02:11:41.473Z,97.80
2022-09-05T02:14:24.517Z,97.80
2022-09-05T02:17:50.367Z,97.80
2022-09-05T02:20:26.691Z,97.80
2022-09-05T02:23:00.412Z,97.80
2022-09-05T02:26:02.602Z,97.90
2022-09-05T02:28:45.923Z,97.90
2022-09-05T02:31:41.841Z,98.00
2022-09-05T02:34:08.542Z,98.10
2022-09-05T02:36:50.443Z,97.90
2022-09-05T02:45:02.566Z,98.00
2022-09-05T02:45:11.427Z,98.10
2022-09-05T02:45:40.872Z,98.10
2022-09-05T02:48:15.404Z,98.20
2022-09-05T02:57:25.163Z,98.20
2022-09-05T02:57:35.090Z,98.20
2022-09-05T02:57:39.664Z,98.30
2022-09-05T03:00:38.539Z,98.40
2022-09-05T03:03:20.305Z,98.30
2022-09-05T03:05:59.017Z,98.30
2022-09-05T03:09:09.831Z,98.30
2022-09-05T03:11:57.397Z,98.30
2022-09-05T03:14:55.148Z,98.50
2022-09-05T03:18:20.827Z,98.50
2022-09-05T03:21:09.295Z,98.60
2022-09-05T03:24:01.371Z,98.60
2022-09-05T03:26:47.067Z,98.80
2022-09-05T03:29:38.793Z,98.80
2022-09-05T03:32:23.459Z,99.00
2022-09-05T03:35:09.958Z,99.00
2022-09-05T03:37:48.723Z,98.90
2022-09-05T03:40:34.693Z,99.00
2022-09-05T03:43:29.946Z,99.10
2022-09-05T03:46:31.692Z,99.10
2022-09-05T03:50:09.476Z,99.10
2022-09-05T03:57:05.936Z,99.10
2022-09-05T03:57:13.708Z,99.20
2022-09-05T03:58:57.367Z,99.20
2022-09-05T04:03:30.820Z,99.30
2022-09-05T04:08:14.568Z,99.30
2022-09-05T04:08:38.529Z,99.40
2022-09-05T04:11:39.069Z,99.50
2022-09-05T04:14:14.659Z,99.70
2022-09-05T04:16:47.424Z,99.80
2022-09-05T04:19:38.049Z,99.80
2022-09-05T04:22:26.996Z,99.80
2022-09-05T04:25:07.975Z,99.90
2022-09-05T04:27:59.273Z,99.90
2022-09-05T04:30:54.624Z,99.90
2022-09-05T04:33:43.107Z,99.90
2022-09-05T04:36:33.551Z,99.90
2022-09-05T04:39:18.690Z,99.90
2022-09-05T04:42:10.994Z,99.90
2022-09-05T04:44:43.881Z,99.90
2022-09-05T04:47:20.123Z,99.90
2022-09-05T04:50:10.774Z,99.70
2022-09-05T04:53:02.671Z,99.70
2022-09-05T04:55:33.018Z,99.80
2022-09-05T04:58:07.118Z,99.70
2022-09-05T05:06:04.358Z,99.80
2022-09-05T05:06:12.591Z,99.80
2022-09-05T05:06:45.382Z,99.80
2022-09-05T05:09:25.331Z,99.90
2022-09-05T05:17:57.887Z,99.90
2022-09-05T05:18:02.450Z,99.90
2022-09-05T05:18:42.432Z,99.90
2022-09-05T05:21:15.612Z,99.90
2022-09-05T05:23:53.404Z,99.90
2022-09-05T05:26:29.068Z,99.90
2022-09-05T05:29:01.742Z,99.90
2022-09-05T05:31:32.044Z,99.90
2022-09-05T05:34:03.791Z,99.90
2022-09-05T05:36:45.872Z,99.90
2022-09-05T05:39:24.482Z,99.90
2022-09-05T05:41:56.674Z,99.90
2022-09-05T05:44:36.833Z,99.90
2022-09-05T05:47:16.535Z,99.90
2022-09-05T05:50:18.620Z,99.90
2022-09-05T05:53:33.502Z,99.90
2022-09-05T05:56:15.585Z,99.90
2022-09-05T05:59:08.789Z,99.90
2022-09-05T06:01:54.120Z,99.90
2022-09-05T06:04:48.266Z,99.90
2022-09-05T06:08:41.288Z,99.90
2022-09-05T06:14:50.429Z,99.90
2022-09-05T06:15:01.180Z,99.90
2022-09-05T06:17:32.098Z,99.90
2022-09-05T06:22:11.120Z,99.90
2022-09-05T06:23:40.512Z,99.90
2022-09-05T06:26:35.003Z,99.90
2022-09-05T06:29:37.997Z,99.90
2022-09-05T06:32:29.969Z,99.90
2022-09-05T06:35:05.590Z,99.90
2022-09-05T06:38:08.179Z,99.90
2022-09-05T06:41:13.572Z,99.90
2022-09-05T06:43:55.281Z,99.90
2022-09-05T06:46:54.743Z,99.90
2022-09-05T06:49:28.958Z,99.90
2022-09-05T06:52:54.606Z,99.90
2022-09-05T06:55:36.887Z,99.90
2022-09-05T06:58:37.647Z,99.90
2022-09-05T07:01:08.590Z,99.90
2022-09-05T07:05:23.286Z,99.90
2022-09-05T07:07:13.724Z,99.90
2022-09-05T07:09:57.370Z,99.90
2022-09-05T07:12:29.987Z,99.90
2022-09-05T07:15:39.651Z,99.90
2022-09-05T07:18:13.572Z,99.90
2022-09-05T07:21:16.402Z,99.90
2022-09-05T07:24:06.408Z,99.90
2022-09-05T07:26:49.685Z,99.90
2022-09-05T07:29:27.688Z,99.90
2022-09-05T07:31:56.177Z,99.90
2022-09-05T07:34:27.009Z,99.90
2022-09-05T07:37:14.732Z,99.90
2022-09-05T07:40:12.982Z,99.90
2022-09-05T07:43:18.861Z,99.90
2022-09-05T07:45:56.438Z,99.90
2022-09-05T07:48:35.277Z,99.80
2022-09-05T07:55:30.498Z,99.80
2022-09-05T07:57:06.275Z,99.80
2022-09-05T07:57:25.433Z,99.80
2022-09-05T07:59:47.041Z,99.80
2022-09-05T08:02:14.265Z,99.60
2022-09-05T08:04:42.111Z,99.60
2022-09-05T08:07:49.961Z,99.40
2022-09-05T08:10:35.650Z,99.30
2022-09-05T08:13:34.184Z,99.10
2022-09-05T08:16:13.136Z,99.10
2022-09-05T08:18:47.919Z,98.90
2022-09-05T08:21:27.177Z,98.70
2022-09-05T08:24:20.474Z,98.60
2022-09-05T08:26:54.334Z,98.10
2022-09-05T08:29:40.013Z,98.10
2022-09-05T08:32:09.503Z,97.70
2022-09-05T08:34:59.559Z,97.40
2022-09-05T08:37:28.368Z,97.00
2022-09-05T08:40:10.191Z,97.00
2022-09-05T08:45:50.655Z,97.00
2022-09-05T08:46:43.350Z,97.00
2022-09-05T08:49:12.310Z,97.20
2022-09-05T08:51:55.470Z,97.20
2022-09-05T08:54:43.265Z,97.40
2022-09-05T08:57:23.432Z,96.50
2022-09-05T09:00:18.919Z,96.60
2022-09-05T09:03:06.108Z,96.00
2022-09-05T09:06:13.912Z,95.60
2022-09-05T09:09:09.621Z,95.50
2022-09-05T09:11:42.226Z,95.40
2022-09-05T09:14:43.627Z,95.60
2022-09-05T09:17:44.590Z,95.40
2022-09-05T09:20:33.492Z,94.60
2022-09-05T09:23:37.643Z,94.80
2022-09-05T09:26:28.410Z,94.80
2022-09-05T09:29:06.404Z,94.40
2022-09-05T09:32:02.706Z,94.00
2022-09-05T09:34:49.459Z,93.90
2022-09-05T09:37:51.933Z,94.00
2022-09-05T09:40:25.678Z,93.80
2022-09-05T09:43:07.254Z,93.50
2022-09-05T09:45:56.015Z,93.00
2022-09-05T09:48:28.780Z,93.10
2022-09-05T09:51:22.725Z,93.10
2022-09-05T09:54:07.955Z,92.80
2022-09-05T09:56:49.734Z,92.50
2022-09-05T09:59:49.695Z,92.00
2022-09-05T10:06:04.511Z,91.80
2022-09-05T10:10:51.892Z,91.10
2022-09-05T10:11:00.721Z,91.30
2022-09-05T10:12:17.123Z,91.50
2022-09-05T10:14:53.207Z,90.90
2022-09-05T10:17:57.647Z,90.80
2022-09-05T10:20:38.005Z,90.20
2022-09-05T10:23:35.585Z,90.10
2022-09-05T10:26:41.341Z,89.70
2022-09-05T10:29:36.575Z,88.20
2022-09-05T10:35:02.786Z,88.40
2022-09-05T10:35:22.414Z,87.50
2022-09-05T10:38:32.743Z,83.90
2022-09-05T10:41:20.718Z,84.00
2022-09-05T10:44:02.213Z,84.70
2022-09-05T10:46:49.593Z,82.10
2022-09-05T10:49:16.681Z,81.80
2022-09-05T10:52:19.025Z,81.50
2022-09-05T10:55:14.374Z,78.00
2022-09-05T10:57:57.767Z,76.60
2022-09-05T11:02:20.977Z,76.90
2022-09-05T11:03:55.531Z,74.50
2022-09-05T11:06:32.564Z,72.90
2022-09-05T11:09:16.352Z,72.20
2022-09-05T11:11:50.274Z,66.90
2022-09-05T11:14:51.335Z,66.40
2022-09-05T11:17:29.969Z,65.80
2022-09-05T11:20:05.935Z,64.10
2022-09-05T11:22:46.974Z,62.60
2022-09-05T11:25:39.960Z,62.60
2022-09-05T11:28:18.673Z,62.10
2022-09-05T11:30:53.405Z,61.90
2022-09-05T11:39:51.442Z,61.60
2022-09-05T11:39:52.516Z,61.70
2022-09-05T11:40:31.615Z,61.80
2022-09-05T11:43:04.681Z,62.00
2022-09-05T11:45:52.673Z,61.20
2022-09-05T11:48:53.172Z,60.70
2022-09-05T11:51:51.475Z,59.80
2022-09-05T11:54:47.490Z,59.90
2022-09-05T11:57:33.166Z,59.80
2022-09-05T12:00:31.990Z,57.80
2022-09-05T12:03:57.613Z,57.90
2022-09-05T12:06:33.521Z,57.30
2022-09-05T12:09:29.230Z,56.50
2022-09-05T12:12:39.309Z,56.10
2022-09-05T12:15:23.317Z,56.10
2022-09-05T12:18:19.604Z,56.50
2022-09-05T12:20:48.409Z,56.40
2022-09-05T12:23:39.928Z,55.90
2022-09-05T12:27:42.788Z,55.50
2022-09-05T12:29:45.552Z,55.60
2022-09-05T12:34:11.972Z,55.10
2022-09-05T12:36:12.659Z,55.70
2022-09-05T12:40:55.038Z,56.50
2022-09-05T12:41:40.806Z,56.90
2022-09-05T12:44:41.438Z,57.80
2022-09-05T12:47:16.568Z,57.90
2022-09-05T12:50:14.922Z,57.50
2022-09-05T12:52:46.619Z,56.90
2022-09-05T12:56:35.009Z,56.50
2022-09-05T13:02:55.731Z,56.40
2022-09-05T13:03:12.130Z,56.10
2022-09-05T13:04:32.037Z,56.10
2022-09-05T13:07:13.448Z,55.90
2022-09-05T13:11:11.439Z,55.70
2022-09-05T13:14:49.526Z,55.50
2022-09-05T13:15:39.985Z,55.00
2022-09-05T13:18:08.530Z,54.80
2022-09-05T13:21:07.267Z,53.40
2022-09-05T13:24:05.784Z,53.80
2022-09-05T13:26:46.667Z,53.10
2022-09-05T13:29:25.183Z,53.60
2022-09-05T13:38:04.233Z,54.00
2022-09-05T13:38:12.343Z,54.40
2022-09-05T13:38:47.506Z,54.80
2022-09-05T13:41:00.147Z,55.10
2022-09-05T13:43:38.164Z,55.30
2022-09-05T13:46:10.852Z,55.80
2022-09-05T13:51:51.437Z,55.20
2022-09-05T13:54:36.412Z,55.60
2022-09-05T13:57:34.950Z,55.80
2022-09-05T14:00:15.321Z,56.10
2022-09-05T14:06:37.850Z,56.50
2022-09-05T14:09:39.852Z,56.00
2022-09-05T14:12:25.465Z,55.30
2022-09-05T14:15:24.831Z,55.20
2022-09-05T14:18:20.571Z,55.30
2022-09-05T14:21:15.094Z,54.80
2022-09-05T14:24:09.789Z,54.60
2022-09-05T14:26:57.304Z,54.40
2022-09-05T14:29:33.073Z,53.90
2022-09-05T14:37:38.940Z,53.70
2022-09-05T14:37:49.607Z,54.00
2022-09-05T14:38:15.651Z,54.00
2022-09-05T14:41:16.060Z,54.00
2022-09-05T14:43:48.747Z,53.60
2022-09-05T14:46:45.195Z,53.60
2022-09-05T14:49:22.513Z,53.40
2022-09-05T14:51:52.258Z,53.10
2022-09-05T15:02:39.689Z,52.40
2022-09-05T15:02:58.394Z,52.80
2022-09-05T15:03:04.255Z,52.20
2022-09-05T15:05:31.910Z,52.00
2022-09-05T15:11:08.844Z,52.00
2022-09-05T15:12:21.030Z,52.30
2022-09-05T15:14:11.597Z,52.80
2022-09-05T15:16:45.559Z,51.40
2022-09-05T15:19:34.127Z,51.00
2022-09-05T15:22:24.569Z,50.80
2022-09-05T15:25:16.807Z,50.70
2022-09-05T15:27:46.146Z,51.10
2022-09-05T15:30:35.729Z,51.10
2022-09-05T15:33:26.286Z,51.00
2022-09-05T15:35:53.793Z,51.50
2022-09-05T15:38:22.647Z,51.30
2022-09-05T15:41:02.282Z,51.40
2022-09-05T15:43:29.476Z,51.20
2022-09-05T15:46:04.399Z,51.40
2022-09-05T15:48:35.416Z,51.30
2022-09-05T15:51:17.319Z,51.40
2022-09-05T15:53:44.286Z,51.10
2022-09-05T15:56:11.074Z,51.60
2022-09-05T15:58:53.921Z,51.40
2022-09-05T16:01:58.713Z,51.50
2022-09-05T16:07:59.885Z,51.80
2022-09-05T16:10:30.850Z,52.20
2022-09-05T16:10:57.982Z,52.20
2022-09-05T16:12:56.406Z,52.30
2022-09-05T16:17:24.839Z,52.70
2022-09-05T16:23:23.408Z,53.10
2022-09-05T16:23:31.775Z,53.00
2022-09-05T16:24:59.776Z,53.20
2022-09-05T16:27:43.706Z,53.90
2022-09-05T16:30:15.586Z,54.00
2022-09-05T16:32:51.320Z,54.60
2022-09-05T16:35:25.157Z,55.40
2022-09-05T16:38:13.257Z,55.40
2022-09-05T16:40:43.869Z,55.60
2022-09-05T16:43:24.126Z,55.40
2022-09-05T16:46:10.280Z,55.70
2022-09-05T16:48:55.361Z,55.90
2022-09-05T16:51:35.777Z,56.80
2022-09-05T16:54:26.517Z,56.90
2022-09-05T16:57:05.709Z,57.30
2022-09-05T16:59:34.981Z,57.60
2022-09-05T17:02:08.022Z,58.00
2022-09-05T17:05:02.966Z,58.00
2022-09-05T17:07:35.233Z,58.00
2022-09-05T17:10:17.229Z,58.20
2022-09-05T17:12:44.588Z,58.40
2022-09-05T17:15:17.335Z,58.50
2022-09-05T17:18:19.463Z,58.50
2022-09-05T17:20:36.967Z,58.50
2022-09-05T17:27:24.248Z,58.70
2022-09-05T17:29:26.822Z,59.10
2022-09-05T17:29:30.889Z,59.30
2022-09-05T17:31:54.998Z,59.80
2022-09-05T17:35:17.100Z,60.20
2022-09-05T17:38:17.225Z,61.20
2022-09-05T17:41:11.914Z,61.90
2022-09-05T17:43:40.866Z,61.70
2022-09-05T17:46:29.376Z,61.60
2022-09-05T17:49:17.970Z,62.50
2022-09-05T17:51:52.076Z,62.70
2022-09-05T17:54:27.792Z,63.50
2022-09-05T17:56:54.554Z,64.10
2022-09-05T17:59:22.270Z,64.30
2022-09-05T18:02:07.887Z,64.50
2022-09-05T18:04:45.044Z,65.40
2022-09-05T18:07:26.890Z,65.10
2022-09-05T18:10:15.274Z,66.10
2022-09-05T18:13:13.742Z,66.00
2022-09-05T18:15:50.836Z,66.40
2022-09-05T18:19:32.855Z,67.10
2022-09-05T18:21:25.773Z,67.30
2022-09-05T18:24:05.795Z,67.30
2022-09-05T18:26:42.760Z,67.60
2022-09-05T18:29:58.609Z,68.20
2022-09-05T18:32:45.117Z,68.10
2022-09-05T18:35:37.891Z,69.10
2022-09-05T18:38:49.975Z,69.40
2022-09-05T18:41:24.708Z,69.60
2022-09-05T18:44:13.928Z,70.70
2022-09-05T18:46:47.326Z,70.30
2022-09-05T18:50:22.345Z,70.80
2022-09-05T18:52:42.012Z,71.20
2022-09-05T18:56:11.460Z,71.20
2022-09-05T18:58:26.485Z,71.30
2022-09-05T19:00:55.253Z,71.50
2022-09-05T19:03:29.186Z,72.10
2022-09-05T19:06:36.046Z,73.00
2022-09-05T19:09:47.152Z,72.80
2022-09-05T19:12:35.079Z,73.90
2022-09-05T19:15:13.914Z,73.40
2022-09-05T19:17:46.925Z,73.50
2022-09-05T19:20:32.868Z,73.70
2022-09-05T19:23:13.343Z,74.00
2022-09-05T19:25:53.979Z,74.30
2022-09-05T19:34:40.740Z,74.60
2022-09-05T19:37:03.297Z,75.30
2022-09-05T19:37:07.574Z,75.60
2022-09-05T19:37:26.196Z,76.20
2022-09-05T19:46:50.699Z,76.30
2022-09-05T19:47:34.266Z,76.30
2022-09-05T19:47:35.921Z,76.10
2022-09-05T19:48:30.577Z,77.30
2022-09-05T19:51:17.209Z,77.50
2022-09-05T19:54:05.356Z,77.50
2022-09-05T19:56:38.596Z,77.80
2022-09-05T19:59:38.191Z,78.20
2022-09-05T20:02:20.096Z,78.50
2022-09-05T20:04:59.169Z,79.00
2022-09-05T20:07:31.991Z,79.20
2022-09-05T20:10:02.445Z,79.40
2022-09-05T20:12:38.126Z,79.10
2022-09-05T20:15:22.976Z,79.10
2022-09-05T20:17:54.135Z,79.20
2022-09-05T20:20:31.821Z,79.30
2022-09-05T20:23:02.206Z,79.40
2022-09-05T20:25:49.497Z,79.60
2022-09-05T20:28:19.759Z,80.80
2022-09-05T20:30:51.866Z,80.80
2022-09-05T20:33:40.916Z,81.20
2022-09-05T20:43:09.176Z,81.50
2022-09-05T20:43:20.650Z,82.10
2022-09-05T20:43:24.591Z,81.80
2022-09-05T20:44:50.562Z,82.60
2022-09-05T20:51:31.597Z,82.90
2022-09-05T20:54:12.794Z,83.10
2022-09-05T20:54:25.555Z,83.70
2022-09-05T20:56:18.981Z,83.40
2022-09-05T20:58:50.249Z,84.00
2022-09-05T21:01:24.232Z,84.30
2022-09-05T21:04:02.460Z,84.50
2022-09-05T21:06:36.964Z,84.80
2022-09-05T21:09:24.883Z,85.10
2022-09-05T21:11:55.649Z,85.60
2022-09-05T21:14:24.892Z,85.50
2022-09-05T21:17:14.991Z,85.20
2022-09-05T21:19:53.304Z,85.10
2022-09-05T21:22:21.362Z,85.30
2022-09-05T21:24:49.012Z,85.50
2022-09-05T21:27:24.472Z,86.10
2022-09-05T21:29:58.768Z,86.10
2022-09-05T21:32:37.890Z,85.60
2022-09-05T21:35:15.450Z,86.40
2022-09-05T21:37:56.583Z,85.80
2022-09-05T21:40:24.371Z,85.90
2022-09-05T21:47:33.230Z,86.10
2022-09-05T21:47:49.426Z,86.20
2022-09-05T21:48:26.947Z,86.50
2022-09-05T21:50:57.210Z,86.50
2022-09-05T21:55:28.232Z,86.90
2022-09-05T21:59:33.665Z,87.50
2022-09-05T21:59:36.926Z,87.40
2022-09-05T22:02:08.605Z,87.50
2022-09-05T22:04:41.028Z,87.40
2022-09-05T22:07:32.086Z,87.70
2022-09-05T22:09:59.799Z,87.90
2022-09-05T22:12:33.451Z,88.10
2022-09-05T22:15:02.498Z,88.10
2022-09-05T22:17:49.576Z,88.20
2022-09-05T22:20:17.826Z,88.10
2022-09-05T22:22:45.283Z,88.20
2022-09-05T22:25:33.750Z,88.30
2022-09-05T22:28:19.890Z,89.10
2022-09-05T22:30:46.771Z,89.50
2022-09-05T22:33:13.604Z,89.90
2022-09-05T22:35:40.996Z,90.00
2022-09-05T22:38:14.297Z,90.10
2022-09-05T22:40:44.654Z,90.20
2022-09-05T22:43:11.529Z,90.40
2022-09-05T22:45:41.381Z,90.50
2022-09-05T22:48:13.136Z,90.40
2022-09-05T22:50:41.151Z,90.20
2022-09-05T22:53:09.674Z,90.20
2022-09-05T22:55:38.579Z,90.30
2022-09-05T22:58:07.403Z,90.40
2022-09-05T23:00:34.670Z,90.50
2022-09-05T23:03:06.323Z,90.80
2022-09-05T23:05:33.887Z,91.00
2022-09-05T23:08:01.935Z,91.00
2022-09-05T23:10:30.274Z,91.00
2022-09-05T23:12:57.076Z,91.10
2022-09-05T23:15:24.552Z,91.20
2022-09-05T23:17:56.031Z,91.30
2022-09-05T23:20:24.213Z,91.40
2022-09-05T23:22:51.192Z,91.40
2022-09-05T23:25:18.250Z,91.50
2022-09-05T23:27:45.454Z,91.50
2022-09-05T23:30:12.567Z,91.40
2022-09-05T23:35:04.908Z,91.50
2022-09-05T23:37:31.637Z,91.50
2022-09-05T23:39:58.561Z,91.50
2022-09-05T23:42:25.328Z,91.30
2022-09-05T23:44:52.006Z,91.50
2022-09-05T23:47:18.767Z,91.40
2022-09-05T23:49:45.490Z,91.60
2022-09-05T23:52:12.285Z,91.70
2022-09-05T23:54:38.977Z,91.70
2022-09-05T23:57:05.728Z,91.70
2022-09-05T23:59:32.456Z,91.80
